Time;durP1;ratioP1;P1;durP2;ratioP2;P2;SDS_P1;SDS_P2;PMS_P1;PMS_P2;Temp;Humidity;BMP_temperature;BMP_pressure;BME280_temperature;BME280_humidity;BME280_pressure;Samples;Min_cycle;Max_cycle;Signal;HPM_P1;HPM_P2
2023/03/29 00:02:00;;;;;;;5.67;1.90;;;;;;;;;;5030949;28;20453;-66
2023/03/29 00:04:27;;;;;;;5.83;2.20;;;;;;;;;;5049277;28;20912;-65
2023/03/29 00:06:54;;;;;;;3.87;1.90;;;;;;;;;;5032615;28;20453;-65
2023/03/29 00:09:21;;;;;;;5.53;2.23;;;;;;;;;;5049532;28;20514;-65
2023/03/29 00:11:47;;;;;;;4.67;2.57;;;;;;;;;;5050052;28;20453;-65
2023/03/29 00:14:14;;;;;;;8.33;2.30;;;;;;;;;;5048670;28;20449;-65
2023/03/29 00:16:43;;;;;;;6.67;2.10;;;;;;;;;;5047991;28;20445;-65
2023/03/29 00:19:10;;;;;;;5.93;2.40;;;;;;;;;;5049460;28;20576;-65
2023/03/29 00:21:36;;;;;;;6.60;2.43;;;;;;;;;;5048098;28;20449;-65
2023/03/29 00:24:03;;;;;;;4.27;2.20;;;;;;;;;;5049046;28;20441;-65
2023/03/29 00:26:30;;;;;;;6.77;2.57;;;;;;;;;;5049023;28;20449;-65
2023/03/29 00:28:56;;;;;;;5.33;2.30;;;;;;;;;;5034412;28;20453;-65
2023/03/29 00:31:24;;;;;;;6.00;2.23;;;;;;;;;;5048877;28;20876;-65
2023/03/29 00:33:51;;;;;;;6.77;2.40;;;;;;;;;;5049080;28;20805;-65
2023/03/29 00:36:18;;;;;;;4.17;2.03;;;;;;;;;;5031466;28;20449;-65
2023/03/29 00:38:45;;;;;;;4.00;1.97;;;;;;;;;;5046229;28;20472;-66
2023/03/29 00:41:12;;;;;;;3.40;2.03;;;;;;;;;;5031081;28;20448;-65
2023/03/29 00:43:55;;;;;;;3.53;1.80;;;;;;;;;;5048209;28;21057;-65
2023/03/29 00:46:23;;;;;;;8.33;2.30;;;;;;;;;;5048580;28;20543;-65
2023/03/29 00:48:50;;;;;;;4.73;2.07;;;;;;;;;;5047620;28;20445;-65
2023/03/29 00:51:17;;;;;;;7.13;2.10;;;;;;;;;;5031809;28;20440;-65
2023/03/29 00:53:47;;;;;;;6.87;2.10;;;;;;;;;;5048234;28;20449;-65
2023/03/29 00:56:25;;;;;;;7.53;2.17;;;;;;;;;;5030705;28;20539;-65
2023/03/29 00:59:01;;;;;;;6.03;2.13;;;;;;;;;;5047952;28;20480;-65
2023/03/29 01:01:32;;;;;;;4.90;2.37;;;;;;;;;;5048288;28;20535;-65
2023/03/29 01:04:02;;;;;;;5.13;2.13;;;;;;;;;;5029773;28;20552;-65
2023/03/29 01:06:30;;;;;;;6.20;2.20;;;;;;;;;;5048177;28;20445;-65
2023/03/29 01:08:57;;;;;;;4.90;1.87;;;;;;;;;;5013858;28;20460;-65
2023/03/29 01:11:31;;;;;;;5.60;2.20;;;;;;;;;;5028775;28;20449;-65
2023/03/29 01:14:05;;;;;;;6.00;2.47;;;;;;;;;;5027087;28;20463;-65
2023/03/29 01:16:33;;;;;;;5.07;2.50;;;;;;;;;;5030458;28;20448;-65
2023/03/29 01:19:01;;;;;;;7.53;3.00;;;;;;;;;;5010761;28;21028;-65
2023/03/29 01:21:32;;;;;;;7.97;3.10;;;;;;;;;;5036714;28;20524;-65
2023/03/29 01:24:08;;;;;;;9.43;3.53;;;;;;;;;;5048075;28;20460;-66
2023/03/29 01:26:47;;;;;;;7.23;3.13;;;;;;;;;;5029782;28;20460;-65
2023/03/29 01:29:16;;;;;;;7.10;2.63;;;;;;;;;;5049123;28;20448;-66
2023/03/29 01:31:44;;;;;;;3.97;2.37;;;;;;;;;;5030410;28;20453;-65
2023/03/29 01:34:24;;;;;;;7.67;2.10;;;;;;;;;;5033688;28;20459;-65
2023/03/29 01:37:03;;;;;;;3.93;2.10;;;;;;;;;;5031031;28;20471;-65
2023/03/29 01:39:30;;;;;;;6.07;2.40;;;;;;;;;;5050722;28;20507;-65
2023/03/29 01:42:20;;;;;;;6.50;2.57;;;;;;;;;;5048676;28;20437;-65
2023/03/29 02:16:39;;;;;;;5.27;2.13;;;;;;;;;;4946373;29;20450;-65
2023/03/29 02:19:06;;;;;;;4.57;2.40;;;;;;;;;;4947459;29;20480;-65
2023/03/29 02:21:38;;;;;;;6.60;2.37;;;;;;;;;;4969135;28;20441;-65
2023/03/29 02:24:08;;;;;;;6.50;2.10;;;;;;;;;;4990876;28;20493;-65
2023/03/29 02:26:36;;;;;;;7.77;2.77;;;;;;;;;;5008114;28;20446;-65
2023/03/29 02:29:02;;;;;;;8.07;4.53;;;;;;;;;;5009110;28;20453;-65
2023/03/29 02:31:36;;;;;;;6.67;2.37;;;;;;;;;;5008807;28;20516;-65
2023/03/29 02:34:03;;;;;;;8.82;2.78;;;;;;;;;;5012468;28;20455;-65
2023/03/29 02:36:34;;;;;;;8.63;2.80;;;;;;;;;;5030188;28;20219;-65
2023/03/29 02:39:02;;;;;;;5.90;2.67;;;;;;;;;;5013323;28;21207;-66
2023/03/29 02:41:30;;;;;;;8.40;3.40;;;;;;;;;;5013750;28;20851;-65
2023/03/29 02:43:58;;;;;;;7.37;2.93;;;;;;;;;;5011888;28;20469;-65
2023/03/29 02:46:24;;;;;;;6.07;3.20;;;;;;;;;;5016511;28;20449;-65
2023/03/29 02:48:51;;;;;;;9.20;2.90;;;;;;;;;;5033739;28;20491;-65
2023/03/29 02:51:19;;;;;;;9.50;3.03;;;;;;;;;;5013506;28;20828;-65
2023/03/29 02:53:56;;;;;;;6.07;2.80;;;;;;;;;;5027905;28;20449;-65
2023/03/29 02:56:22;;;;;;;5.77;2.90;;;;;;;;;;5032979;28;21004;-65
2023/03/29 02:58:49;;;;;;;7.03;3.77;;;;;;;;;;5032583;28;20782;-65
2023/03/29 03:01:16;;;;;;;8.20;3.03;;;;;;;;;;5050410;28;20850;-65
2023/03/29 03:03:43;;;;;;;5.73;2.90;;;;;;;;;;5050978;28;20456;-66
2023/03/29 03:06:12;;;;;;;9.77;3.03;;;;;;;;;;5034103;28;20873;-65
2023/03/29 03:08:39;;;;;;;5.20;2.93;;;;;;;;;;5031499;28;20440;-66
2023/03/29 03:11:05;;;;;;;8.17;3.33;;;;;;;;;;5034087;28;20448;-66
2023/03/29 03:13:32;;;;;;;6.97;3.20;;;;;;;;;;5050157;28;20453;-65
2023/03/29 03:16:00;;;;;;;6.93;2.93;;;;;;;;;;5050700;28;20800;-65
2023/03/29 03:18:26;;;;;;;7.20;3.10;;;;;;;;;;5050191;28;21175;-65
2023/03/29 03:20:54;;;;;;;8.97;2.90;;;;;;;;;;5036133;28;20483;-66
2023/03/29 03:23:21;;;;;;;6.23;3.07;;;;;;;;;;5049985;28;20438;-65
2023/03/29 03:25:48;;;;;;;9.13;3.13;;;;;;;;;;5033495;28;20847;-65
2023/03/29 03:28:15;;;;;;;9.33;3.27;;;;;;;;;;5053494;28;20830;-66
2023/03/29 03:30:42;;;;;;;8.50;3.60;;;;;;;;;;5033060;28;20554;-66
2023/03/29 03:33:28;;;;;;;10.43;2.90;;;;;;;;;;5036492;28;20472;-66
2023/03/29 03:36:01;;;;;;;6.83;2.97;;;;;;;;;;5050379;28;20433;-65
2023/03/29 03:38:30;;;;;;;9.90;4.47;;;;;;;;;;5031752;28;20643;-66
2023/03/29 03:40:58;;;;;;;8.20;3.10;;;;;;;;;;5031529;28;20453;-65
2023/03/29 03:43:28;;;;;;;5.63;2.47;;;;;;;;;;5035264;28;20473;-66
2023/03/29 03:45:55;;;;;;;8.53;2.70;;;;;;;;;;5031733;28;20441;-66
2023/03/29 03:48:23;;;;;;;8.27;3.07;;;;;;;;;;5032642;28;20816;-66
2023/03/29 03:51:19;;;;;;;4.90;2.70;;;;;;;;;;5025930;28;20461;-68
2023/03/29 03:53:50;;;;;;;8.63;3.00;;;;;;;;;;5014046;28;20460;-68
2023/03/29 03:56:33;;;;;;;10.80;3.40;;;;;;;;;;5030535;28;20460;-66
2023/03/29 03:59:18;;;;;;;6.23;3.00;;;;;;;;;;5029003;28;20999;-66
2023/03/29 04:01:54;;;;;;;5.73;2.27;;;;;;;;;;5028893;28;20456;-66
2023/03/29 04:04:25;;;;;;;7.50;3.20;;;;;;;;;;5029045;28;21033;-66
2023/03/29 04:07:01;;;;;;;9.20;3.13;;;;;;;;;;5028587;28;20461;-67
2023/03/29 04:09:32;;;;;;;7.07;2.70;;;;;;;;;;5046402;28;20872;-67
2023/03/29 04:12:13;;;;;;;7.00;2.90;;;;;;;;;;5014723;28;20487;-67
2023/03/29 04:14:41;;;;;;;6.87;3.07;;;;;;;;;;5027903;28;20488;-67
2023/03/29 04:17:14;;;;;;;7.07;3.20;;;;;;;;;;5029987;28;20433;-66
2023/03/29 04:19:52;;;;;;;8.07;3.30;;;;;;;;;;5012648;28;20594;-66
2023/03/29 04:22:20;;;;;;;10.73;3.67;;;;;;;;;;5045562;28;20507;-66
2023/03/29 04:24:47;;;;;;;7.67;3.40;;;;;;;;;;5028006;28;20843;-66
2023/03/29 04:27:35;;;;;;;9.90;4.40;;;;;;;;;;5027832;28;21021;-69
2023/03/29 04:30:11;;;;;;;10.97;4.17;;;;;;;;;;5028733;28;20433;-66
2023/03/29 04:32:57;;;;;;;8.30;3.87;;;;;;;;;;5030598;28;20463;-68
2023/03/29 04:35:24;;;;;;;8.60;4.67;;;;;;;;;;5027407;28;20450;-69
2023/03/29 04:37:53;;;;;;;8.73;4.17;;;;;;;;;;5012295;28;20442;-66
2023/03/29 04:40:21;;;;;;;8.47;3.90;;;;;;;;;;5026857;28;20492;-67
2023/03/29 04:42:56;;;;;;;8.20;3.97;;;;;;;;;;5027414;28;20476;-67
2023/03/29 04:45:25;;;;;;;8.83;4.60;;;;;;;;;;5012172;28;20471;-69
2023/03/29 04:48:21;;;;;;;7.80;3.70;;;;;;;;;;5007119;28;20460;-68
2023/03/29 04:50:48;;;;;;;8.20;4.00;;;;;;;;;;5015454;28;21318;-67
2023/03/29 04:53:16;;;;;;;8.43;3.40;;;;;;;;;;5031619;28;20461;-67
2023/03/29 04:55:45;;;;;;;8.20;3.30;;;;;;;;;;5029176;28;20457;-67
2023/03/29 04:58:17;;;;;;;6.90;3.03;;;;;;;;;;5030417;28;20488;-67
2023/03/29 05:00:48;;;;;;;8.57;3.97;;;;;;;;;;5031602;28;20472;-67
2023/03/29 05:03:27;;;;;;;8.77;4.10;;;;;;;;;;5018757;28;20456;-67
2023/03/29 05:06:05;;;;;;;10.93;4.53;;;;;;;;;;5031590;28;20480;-67
2023/03/29 05:08:33;;;;;;;19.07;7.93;;;;;;;;;;5037644;28;20465;-68
2023/03/29 05:11:10;;;;;;;15.03;6.87;;;;;;;;;;5029586;28;20452;-68
2023/03/29 05:13:37;;;;;;;18.20;8.60;;;;;;;;;;5016538;28;20461;-68
2023/03/29 05:16:04;;;;;;;16.00;7.47;;;;;;;;;;5031650;28;20500;-68
2023/03/29 05:18:31;;;;;;;11.60;5.50;;;;;;;;;;5035075;28;20457;-69
2023/03/29 05:20:58;;;;;;;13.67;6.63;;;;;;;;;;5033055;28;20469;-68
2023/03/29 05:23:26;;;;;;;14.20;6.40;;;;;;;;;;5021785;28;21197;-69
2023/03/29 05:26:21;;;;;;;14.40;6.07;;;;;;;;;;5003575;28;20529;-69
2023/03/29 05:28:52;;;;;;;12.83;6.67;;;;;;;;;;5024313;28;21107;-66
2023/03/29 05:31:20;;;;;;;13.33;7.40;;;;;;;;;;5017750;28;20492;-66
2023/03/29 05:33:51;;;;;;;12.73;6.87;;;;;;;;;;5029209;28;20622;-66
2023/03/29 05:36:18;;;;;;;13.60;6.87;;;;;;;;;;5045970;28;20444;-66
2023/03/29 05:38:48;;;;;;;14.33;6.90;;;;;;;;;;5026477;28;20425;-66
2023/03/29 05:41:17;;;;;;;11.47;6.10;;;;;;;;;;5026548;28;21019;-65
2023/03/29 05:44:07;;;;;;;12.73;6.30;;;;;;;;;;5039334;28;20552;-66
2023/03/29 05:46:36;;;;;;;11.47;6.50;;;;;;;;;;5027439;28;20449;-66
2023/03/29 05:49:05;;;;;;;15.40;5.90;;;;;;;;;;5035132;28;20535;-66
2023/03/29 05:51:55;;;;;;;11.50;5.50;;;;;;;;;;5015293;28;20479;-64
2023/03/29 05:54:27;;;;;;;9.37;5.00;;;;;;;;;;5026839;28;20536;-65
2023/03/29 05:56:55;;;;;;;10.30;4.73;;;;;;;;;;5028017;28;20960;-66
2023/03/29 05:59:23;;;;;;;10.27;4.40;;;;;;;;;;5011314;28;20472;-64
2023/03/29 06:01:52;;;;;;;10.67;4.40;;;;;;;;;;5028876;28;20440;-64
2023/03/29 06:04:20;;;;;;;9.50;4.00;;;;;;;;;;5036937;28;20452;-66
2023/03/29 06:06:59;;;;;;;10.57;3.97;;;;;;;;;;5012140;28;20448;-67
2023/03/29 06:09:30;;;;;;;9.73;3.10;;;;;;;;;;5045196;28;20433;-65
2023/03/29 06:12:01;;;;;;;8.20;4.17;;;;;;;;;;5026942;28;20445;-65
2023/03/29 06:14:50;;;;;;;11.80;3.80;;;;;;;;;;5044289;28;20552;-65
2023/03/29 06:17:24;;;;;;;9.77;4.47;;;;;;;;;;5026877;28;21139;-66
2023/03/29 06:19:52;;;;;;;9.53;3.57;;;;;;;;;;5049094;28;20472;-64
2023/03/29 06:22:22;;;;;;;5.50;1.90;;;;;;;;;;5027817;28;20448;-65
2023/03/29 06:24:49;;;;;;;6.67;2.97;;;;;;;;;;5027193;28;20451;-67
2023/03/29 06:27:28;;;;;;;8.83;3.33;;;;;;;;;;5012189;28;20449;-66
2023/03/29 06:29:55;;;;;;;9.47;4.00;;;;;;;;;;5027181;28;20460;-67
2023/03/29 06:32:22;;;;;;;8.00;3.93;;;;;;;;;;5026535;28;20455;-67
2023/03/29 06:34:56;;;;;;;3.83;1.90;;;;;;;;;;5027079;28;20974;-66
2023/03/29 06:37:49;;;;;;;8.83;3.67;;;;;;;;;;5025988;28;20434;-66
2023/03/29 06:40:26;;;;;;;9.33;3.60;;;;;;;;;;5026520;28;20485;-66
2023/03/29 06:42:58;;;;;;;11.00;4.20;;;;;;;;;;5026235;28;20564;-67
2023/03/29 06:45:28;;;;;;;6.90;3.33;;;;;;;;;;5045180;28;20437;-67
2023/03/29 06:47:58;;;;;;;8.37;3.80;;;;;;;;;;5027269;28;20504;-64
2023/03/29 06:50:25;;;;;;;7.87;4.10;;;;;;;;;;5026371;28;20447;-66
2023/03/29 06:53:05;;;;;;;9.20;3.20;;;;;;;;;;5026537;28;20448;-66
2023/03/29 06:55:33;;;;;;;8.10;3.67;;;;;;;;;;4999458;28;20476;-67
2023/03/29 06:58:14;;;;;;;7.73;3.60;;;;;;;;;;5026025;28;20477;-65
2023/03/29 07:00:42;;;;;;;7.67;3.57;;;;;;;;;;5025997;28;20469;-65
2023/03/29 07:03:19;;;;;;;9.30;3.77;;;;;;;;;;5026172;28;20540;-65
2023/03/29 07:05:50;;;;;;;12.70;4.37;;;;;;;;;;5026613;28;20449;-65
2023/03/29 07:08:21;;;;;;;8.90;4.00;;;;;;;;;;5038017;28;20441;-67
2023/03/29 07:10:55;;;;;;;10.93;4.60;;;;;;;;;;5011548;28;20436;-66
2023/03/29 07:13:31;;;;;;;10.43;4.53;;;;;;;;;;5050421;28;20490;-65
2023/03/29 07:16:02;;;;;;;10.13;4.30;;;;;;;;;;5026799;28;20887;-65
2023/03/29 07:18:52;;;;;;;7.50;3.67;;;;;;;;;;5036266;28;20528;-66
2023/03/29 07:21:39;;;;;;;7.73;3.80;;;;;;;;;;5047669;28;20493;-67
2023/03/29 07:24:09;;;;;;;7.57;3.70;;;;;;;;;;5054772;28;20469;-66
2023/03/29 07:26:36;;;;;;;9.30;4.20;;;;;;;;;;5030597;28;20527;-66
2023/03/29 07:29:04;;;;;;;7.53;4.13;;;;;;;;;;5028597;28;21022;-66
2023/03/29 07:31:33;;;;;;;6.83;3.80;;;;;;;;;;5029899;28;21340;-67
2023/03/29 07:34:23;;;;;;;8.97;3.37;;;;;;;;;;5042396;28;20532;-66
2023/03/29 07:36:50;;;;;;;10.57;3.10;;;;;;;;;;5029833;28;20454;-67
2023/03/29 07:39:18;;;;;;;6.93;3.00;;;;;;;;;;5030364;28;20445;-66
2023/03/29 07:42:02;;;;;;;14.37;3.13;;;;;;;;;;5032151;28;20452;-68
2023/03/29 07:44:29;;;;;;;7.30;3.03;;;;;;;;;;5031554;28;20226;-66
2023/03/29 07:46:58;;;;;;;5.80;2.87;;;;;;;;;;5029783;28;20203;-66
2023/03/29 07:49:25;;;;;;;5.50;2.30;;;;;;;;;;5047658;28;20205;-65
2023/03/29 07:51:54;;;;;;;5.33;2.53;;;;;;;;;;5029047;28;20202;-67
2023/03/29 07:54:22;;;;;;;7.47;2.50;;;;;;;;;;5025287;28;20203;-66
2023/03/29 07:57:07;;;;;;;5.57;2.07;;;;;;;;;;5029241;28;20505;-66
2023/03/29 07:59:39;;;;;;;4.73;2.20;;;;;;;;;;5029085;28;20674;-66
2023/03/29 08:02:14;;;;;;;6.93;2.20;;;;;;;;;;5031649;28;20216;-66
2023/03/29 08:04:46;;;;;;;5.27;2.10;;;;;;;;;;5031012;28;20206;-66
2023/03/29 08:07:18;;;;;;;6.80;2.73;;;;;;;;;;5046809;28;20216;-66
2023/03/29 08:09:51;;;;;;;7.27;3.10;;;;;;;;;;5047060;28;20303;-65
2023/03/29 08:12:27;;;;;;;5.07;2.53;;;;;;;;;;5028553;28;20210;-65
2023/03/29 08:14:56;;;;;;;5.63;2.30;;;;;;;;;;5028883;28;20201;-65
2023/03/29 08:17:28;;;;;;;4.00;1.77;;;;;;;;;;5029143;28;20198;-65
2023/03/29 08:19:56;;;;;;;6.53;2.43;;;;;;;;;;5028697;28;20234;-65
2023/03/29 08:22:23;;;;;;;7.80;2.57;;;;;;;;;;5050186;28;20216;-64
2023/03/29 08:25:21;;;;;;;4.30;2.30;;;;;;;;;;5018690;28;20209;-65
2023/03/29 08:27:54;;;;;;;4.27;2.00;;;;;;;;;;5031393;28;20302;-65
2023/03/29 08:30:45;;;;;;;4.97;1.80;;;;;;;;;;5031271;28;20296;-65
2023/03/29 08:33:12;;;;;;;5.17;1.63;;;;;;;;;;5052119;28;20214;-65
2023/03/29 08:35:40;;;;;;;2.87;1.70;;;;;;;;;;5032149;28;20225;-65
2023/03/29 08:38:20;;;;;;;4.93;1.93;;;;;;;;;;5049367;28;20195;-65
2023/03/29 08:40:52;;;;;;;5.27;2.00;;;;;;;;;;5030877;28;20284;-65
2023/03/29 08:43:36;;;;;;;4.93;2.50;;;;;;;;;;5030337;28;20218;-66
2023/03/29 08:46:32;;;;;;;6.17;2.63;;;;;;;;;;5031813;28;20285;-65
2023/03/29 08:49:19;;;;;;;4.80;2.60;;;;;;;;;;5014969;28;20206;-66
2023/03/29 08:51:55;;;;;;;9.40;2.57;;;;;;;;;;5012014;28;20203;-67
2023/03/29 08:54:24;;;;;;;5.53;2.40;;;;;;;;;;5023142;28;20202;-67
2023/03/29 08:57:30;;;;;;;5.93;2.47;;;;;;;;;;5043577;28;20229;-66
2023/03/29 09:00:04;;;;;;;3.87;2.20;;;;;;;;;;5028464;28;20210;-67
2023/03/29 09:02:34;;;;;;;6.00;3.27;;;;;;;;;;5026853;28;20211;-67
2023/03/29 09:05:24;;;;;;;4.60;2.40;;;;;;;;;;5009417;28;20202;-68
2023/03/29 09:08:12;;;;;;;6.57;2.50;;;;;;;;;;5013494;28;20202;-66
2023/03/29 09:10:41;;;;;;;5.67;2.37;;;;;;;;;;5012293;28;20600;-67
2023/03/29 09:13:18;;;;;;;3.53;2.03;;;;;;;;;;5050649;28;20195;-67
2023/03/29 09:15:48;;;;;;;5.43;2.03;;;;;;;;;;5011853;28;20357;-66
2023/03/29 09:18:37;;;;;;;10.30;2.93;;;;;;;;;;5028750;28;20205;-67
2023/03/29 09:21:07;;;;;;;5.40;2.37;;;;;;;;;;5031895;28;20234;-67
2023/03/29 09:24:03;;;;;;;4.97;2.40;;;;;;;;;;5028305;28;20759;-67
2023/03/29 09:26:59;;;;;;;6.13;2.93;;;;;;;;;;4976549;28;20265;-67
2023/03/29 09:29:38;;;;;;;6.07;1.90;;;;;;;;;;5041393;28;20191;-67
2023/03/29 09:32:11;;;;;;;6.13;2.77;;;;;;;;;;5034956;28;20201;-67
2023/03/29 09:34:40;;;;;;;5.67;2.83;;;;;;;;;;5031408;28;20711;-66
2023/03/29 09:37:20;;;;;;;5.33;2.30;;;;;;;;;;5014734;28;20218;-66
2023/03/29 09:39:51;;;;;;;4.60;2.30;;;;;;;;;;5027273;28;20187;-67
2023/03/29 09:42:20;;;;;;;5.33;2.27;;;;;;;;;;5011214;28;20234;-62
2023/03/29 09:44:48;;;;;;;3.77;2.10;;;;;;;;;;5027609;28;20249;-62
2023/03/29 09:47:20;;;;;;;4.47;1.70;;;;;;;;;;5012112;28;20198;-62
2023/03/29 09:49:48;;;;;;;3.23;1.80;;;;;;;;;;5027470;28;20308;-66
2023/03/29 09:52:15;;;;;;;4.03;1.93;;;;;;;;;;5030650;28;20214;-66
2023/03/29 09:54:51;;;;;;;4.47;1.87;;;;;;;;;;5032298;28;20201;-66
2023/03/29 09:57:53;;;;;;;3.33;1.70;;;;;;;;;;4968089;28;20718;-65
2023/03/29 10:00:21;;;;;;;3.37;1.77;;;;;;;;;;5021239;28;20329;-66
2023/03/29 10:02:51;;;;;;;3.57;1.80;;;;;;;;;;5044803;28;20186;-65
2023/03/29 10:05:23;;;;;;;3.70;1.93;;;;;;;;;;5011750;28;20218;-65
2023/03/29 10:07:52;;;;;;;3.57;1.73;;;;;;;;;;5027410;28;20602;-64
2023/03/29 10:10:22;;;;;;;6.97;2.50;;;;;;;;;;5037773;28;20201;-66
2023/03/29 10:12:50;;;;;;;2.97;1.80;;;;;;;;;;5052278;28;20190;-65
2023/03/29 10:15:17;;;;;;;3.33;1.80;;;;;;;;;;5062476;28;20281;-64
2023/03/29 10:17:59;;;;;;;2.90;1.70;;;;;;;;;;5029146;28;20219;-64
2023/03/29 10:20:26;;;;;;;4.43;1.50;;;;;;;;;;5044724;28;20229;-64
2023/03/29 10:22:55;;;;;;;2.97;1.50;;;;;;;;;;5044627;28;20645;-66
2023/03/29 10:25:24;;;;;;;4.00;1.70;;;;;;;;;;5044444;28;20191;-65
2023/03/29 10:27:52;;;;;;;3.77;1.80;;;;;;;;;;5044394;28;20191;-67
2023/03/29 10:30:22;;;;;;;3.23;1.80;;;;;;;;;;5039355;28;20261;-64
2023/03/29 10:32:56;;;;;;;3.07;1.50;;;;;;;;;;5050357;28;20262;-64
2023/03/29 10:35:24;;;;;;;3.50;1.70;;;;;;;;;;5056048;28;20285;-67
2023/03/29 10:37:52;;;;;;;4.67;1.27;;;;;;;;;;5027119;28;20191;-66
2023/03/29 10:40:20;;;;;;;5.73;1.97;;;;;;;;;;5027575;28;20252;-64
2023/03/29 10:42:50;;;;;;;7.10;1.97;;;;;;;;;;5052530;28;20225;-64
2023/03/29 10:45:23;;;;;;;4.30;1.83;;;;;;;;;;5064276;28;20213;-67
2023/03/29 10:47:53;;;;;;;5.60;1.43;;;;;;;;;;5043356;28;20190;-65
2023/03/29 10:50:19;;;;;;;2.70;1.43;;;;;;;;;;5028672;28;20658;-64
2023/03/29 10:52:46;;;;;;;1.93;1.47;;;;;;;;;;5061445;28;20202;-65
2023/03/29 10:55:13;;;;;;;4.77;1.47;;;;;;;;;;5066658;28;20273;-67
2023/03/29 10:57:59;;;;;;;2.77;1.20;;;;;;;;;;5031318;28;21000;-68
2023/03/29 11:00:27;;;;;;;1.70;1.20;;;;;;;;;;5048906;28;21078;-69
2023/03/29 11:03:11;;;;;;;3.87;1.40;;;;;;;;;;5037675;28;20728;-68
2023/03/29 11:05:45;;;;;;;1.87;1.33;;;;;;;;;;5030888;28;20195;-68
2023/03/29 11:08:13;;;;;;;2.40;1.17;;;;;;;;;;5014971;28;20237;-68
2023/03/29 11:11:01;;;;;;;2.50;1.20;;;;;;;;;;5052081;28;20189;-68
2023/03/29 11:13:40;;;;;;;2.70;1.40;;;;;;;;;;5056389;28;20191;-67
2023/03/29 11:16:23;;;;;;;2.87;1.40;;;;;;;;;;5037862;28;20255;-68
2023/03/29 11:18:56;;;;;;;2.40;1.30;;;;;;;;;;5047986;28;20200;-68
2023/03/29 11:21:22;;;;;;;2.07;1.00;;;;;;;;;;5048347;28;20214;-67
2023/03/29 11:23:58;;;;;;;3.17;1.60;;;;;;;;;;5060499;28;20304;-67
2023/03/29 11:26:26;;;;;;;2.80;1.53;;;;;;;;;;5058444;28;20708;-68
2023/03/29 11:28:56;;;;;;;1.87;1.40;;;;;;;;;;5047739;28;20282;-68
2023/03/29 11:31:27;;;;;;;4.60;1.53;;;;;;;;;;5040367;28;20209;-67
2023/03/29 11:34:03;;;;;;;2.43;1.20;;;;;;;;;;5051291;28;20187;-67
2023/03/29 11:36:33;;;;;;;4.93;1.80;;;;;;;;;;5030491;28;20197;-67
2023/03/29 11:39:00;;;;;;;3.23;1.33;;;;;;;;;;5048070;28;20186;-67
2023/03/29 11:41:27;;;;;;;2.47;1.27;;;;;;;;;;5064677;28;20228;-66
2023/03/29 11:43:57;;;;;;;4.03;1.80;;;;;;;;;;5032777;28;20238;-67
2023/03/29 11:46:26;;;;;;;2.60;1.17;;;;;;;;;;5047726;28;20283;-66
2023/03/29 11:48:55;;;;;;;2.43;1.23;;;;;;;;;;5030589;28;20195;-66
2023/03/29 11:51:25;;;;;;;2.20;1.20;;;;;;;;;;5057204;28;20206;-66
2023/03/29 11:53:52;;;;;;;2.37;1.47;;;;;;;;;;5034269;28;20564;-66
2023/03/29 11:56:22;;;;;;;2.83;1.30;;;;;;;;;;5047882;28;20190;-66
2023/03/29 11:58:51;;;;;;;1.53;0.73;;;;;;;;;;5029822;28;20186;-67
2023/03/29 12:01:29;;;;;;;5.33;1.50;;;;;;;;;;5046866;28;20292;-65
2023/03/29 12:03:57;;;;;;;2.53;1.13;;;;;;;;;;5032410;28;21047;-65
2023/03/29 12:06:32;;;;;;;2.40;1.47;;;;;;;;;;5032259;28;20745;-66
2023/03/29 12:09:01;;;;;;;3.33;1.47;;;;;;;;;;5032646;28;20244;-66
2023/03/29 12:11:28;;;;;;;2.33;1.00;;;;;;;;;;5015980;28;20198;-66
2023/03/29 12:13:57;;;;;;;3.17;1.40;;;;;;;;;;5031984;28;20202;-66
2023/03/29 12:16:26;;;;;;;3.63;1.43;;;;;;;;;;5015583;28;20198;-65
2023/03/29 12:18:54;;;;;;;5.63;1.80;;;;;;;;;;5032010;28;20179;-66
2023/03/29 12:21:21;;;;;;;2.83;1.40;;;;;;;;;;4992730;28;20242;-67
2023/03/29 12:23:50;;;;;;;4.20;1.53;;;;;;;;;;5008723;28;20199;-66
2023/03/29 12:26:32;;;;;;;3.43;1.40;;;;;;;;;;5010506;28;20290;-67
2023/03/29 12:29:15;;;;;;;4.67;1.80;;;;;;;;;;5009781;28;20563;-66
2023/03/29 12:31:44;;;;;;;3.43;1.37;;;;;;;;;;5027789;28;20195;-67
2023/03/29 12:34:17;;;;;;;3.33;1.30;;;;;;;;;;5009763;28;20257;-67
2023/03/29 12:37:16;;;;;;;3.40;1.80;;;;;;;;;;5027873;28;20273;-67
2023/03/29 12:40:08;;;;;;;3.27;1.63;;;;;;;;;;4999054;28;20199;-68
2023/03/29 12:42:57;;;;;;;3.00;1.50;;;;;;;;;;5017754;28;20321;-68
2023/03/29 12:45:47;;;;;;;5.77;1.60;;;;;;;;;;5027120;28;20244;-66
2023/03/29 12:48:21;;;;;;;5.00;1.50;;;;;;;;;;5027679;28;20290;-66
2023/03/29 12:51:01;;;;;;;3.07;1.70;;;;;;;;;;5009279;28;20192;-66
2023/03/29 12:53:35;;;;;;;2.50;1.50;;;;;;;;;;5007551;28;20270;-67
2023/03/29 12:56:02;;;;;;;4.20;1.50;;;;;;;;;;5008939;28;20188;-67
2023/03/29 12:58:36;;;;;;;2.97;1.80;;;;;;;;;;5040804;28;20211;-66
2023/03/29 13:01:22;;;;;;;4.10;1.17;;;;;;;;;;5027106;28;20650;-66
2023/03/29 13:03:50;;;;;;;4.63;1.67;;;;;;;;;;5030244;28;20301;-66
2023/03/29 13:06:26;;;;;;;4.40;1.60;;;;;;;;;;5026029;28;20229;-66
2023/03/29 13:08:56;;;;;;;2.33;1.10;;;;;;;;;;5024652;28;20209;-68
2023/03/29 13:11:24;;;;;;;4.73;1.60;;;;;;;;;;5007048;28;20191;-68
2023/03/29 13:13:51;;;;;;;2.93;1.40;;;;;;;;;;4993610;28;20196;-67
2023/03/29 13:16:18;;;;;;;2.57;1.17;;;;;;;;;;5009501;28;20198;-67
2023/03/29 13:18:56;;;;;;;4.17;1.77;;;;;;;;;;5025907;28;20293;-68
2023/03/29 13:21:47;;;;;;;4.53;2.00;;;;;;;;;;5004275;28;20231;-68
2023/03/29 13:24:22;;;;;;;5.83;1.60;;;;;;;;;;4996629;28;20276;-67
2023/03/29 13:26:50;;;;;;;2.87;1.50;;;;;;;;;;5025433;28;20262;-67
2023/03/29 13:29:26;;;;;;;4.57;2.03;;;;;;;;;;5028491;28;20203;-66
2023/03/29 13:31:59;;;;;;;3.77;1.60;;;;;;;;;;5029754;28;20639;-66
2023/03/29 13:34:56;;;;;;;4.20;2.10;;;;;;;;;;5029555;28;20536;-66
2023/03/29 13:37:28;;;;;;;3.50;2.00;;;;;;;;;;4972611;28;20369;-61
2023/03/29 13:39:56;;;;;;;4.83;2.23;;;;;;;;;;5011057;28;20287;-60
2023/03/29 13:42:24;;;;;;;4.00;1.87;;;;;;;;;;5023547;28;20572;-68
2023/03/29 13:44:52;;;;;;;4.70;1.87;;;;;;;;;;5027940;28;20221;-66
2023/03/29 13:47:28;;;;;;;6.03;2.30;;;;;;;;;;5022350;28;20238;-66
2023/03/29 13:49:56;;;;;;;3.83;2.23;;;;;;;;;;5027762;28;20194;-66
2023/03/29 13:52:30;;;;;;;4.33;1.60;;;;;;;;;;5027591;28;20184;-66
2023/03/29 13:54:57;;;;;;;3.33;1.90;;;;;;;;;;5013657;28;20195;-66
2023/03/29 13:57:24;;;;;;;5.40;2.53;;;;;;;;;;5022002;28;20191;-66
2023/03/29 14:00:10;;;;;;;4.23;2.17;;;;;;;;;;5026652;28;20191;-66
2023/03/29 14:02:37;;;;;;;2.53;1.43;;;;;;;;;;5027221;28;20222;-66
2023/03/29 14:05:07;;;;;;;3.47;1.97;;;;;;;;;;5034101;28;20176;-66
2023/03/29 14:07:36;;;;;;;3.50;1.90;;;;;;;;;;5027051;28;20196;-66
2023/03/29 14:10:02;;;;;;;3.83;1.80;;;;;;;;;;5028536;28;20218;-66
2023/03/29 14:12:35;;;;;;;2.23;1.23;;;;;;;;;;5025355;28;20662;-66
2023/03/29 14:15:05;;;;;;;6.33;2.50;;;;;;;;;;5029302;28;20202;-66
2023/03/29 14:17:34;;;;;;;2.50;1.70;;;;;;;;;;5013050;28;20190;-66
2023/03/29 14:20:01;;;;;;;6.93;2.00;;;;;;;;;;5013038;28;20238;-66
2023/03/29 14:22:29;;;;;;;5.37;2.10;;;;;;;;;;5028672;28;20215;-66
2023/03/29 14:24:55;;;;;;;4.37;2.10;;;;;;;;;;5036163;28;20215;-66
2023/03/29 14:27:22;;;;;;;4.53;2.70;;;;;;;;;;5005034;28;20242;-66
2023/03/29 14:29:51;;;;;;;4.80;2.37;;;;;;;;;;5013636;28;20198;-67
2023/03/29 14:32:18;;;;;;;5.60;2.40;;;;;;;;;;5015065;28;20285;-65
2023/03/29 14:35:03;;;;;;;3.90;1.87;;;;;;;;;;5022393;28;20215;-67
2023/03/29 14:37:31;;;;;;;4.70;2.90;;;;;;;;;;5005837;28;20203;-67
2023/03/29 14:39:57;;;;;;;5.73;2.73;;;;;;;;;;5008075;28;20245;-67
2023/03/29 14:42:25;;;;;;;5.30;2.67;;;;;;;;;;5032729;28;20222;-67
2023/03/29 14:44:56;;;;;;;6.73;2.83;;;;;;;;;;5016090;28;20242;-66
2023/03/29 14:47:26;;;;;;;3.90;2.50;;;;;;;;;;5029660;28;20879;-67
2023/03/29 14:49:55;;;;;;;5.77;2.47;;;;;;;;;;5011084;28;20202;-68
2023/03/29 14:52:23;;;;;;;5.37;2.40;;;;;;;;;;4997257;28;20602;-67
2023/03/29 14:54:51;;;;;;;4.63;2.30;;;;;;;;;;5021650;28;20531;-67
2023/03/29 14:57:22;;;;;;;6.47;2.53;;;;;;;;;;5011065;28;20194;-67
2023/03/29 14:59:55;;;;;;;4.90;2.43;;;;;;;;;;5012594;28;20192;-68
2023/03/29 15:02:22;;;;;;;6.43;3.03;;;;;;;;;;5005567;28;20235;-64
2023/03/29 15:04:56;;;;;;;5.60;2.90;;;;;;;;;;5031607;28;20198;-65
2023/03/29 15:07:25;;;;;;;5.70;1.83;;;;;;;;;;5030328;28;20191;-68
2023/03/29 15:09:52;;;;;;;6.00;2.07;;;;;;;;;;4992040;28;20259;-65
2023/03/29 15:12:19;;;;;;;5.13;2.43;;;;;;;;;;5014432;28;20270;-68
2023/03/29 15:14:47;;;;;;;6.20;3.10;;;;;;;;;;5032492;28;20192;-66
2023/03/29 15:17:26;;;;;;;7.23;3.23;;;;;;;;;;5030093;28;20678;-68
2023/03/29 15:20:13;;;;;;;6.67;2.80;;;;;;;;;;4998319;28;20187;-69
2023/03/29 15:22:50;;;;;;;4.97;3.10;;;;;;;;;;5010337;28;20285;-67
2023/03/29 15:25:18;;;;;;;7.27;3.10;;;;;;;;;;5025431;28;20229;-68
2023/03/29 15:27:45;;;;;;;7.50;3.20;;;;;;;;;;4991421;28;20257;-65
2023/03/29 15:30:13;;;;;;;6.70;2.97;;;;;;;;;;4994867;28;20249;-66
2023/03/29 15:32:40;;;;;;;8.00;3.27;;;;;;;;;;5017153;28;20228;-67
2023/03/29 15:35:22;;;;;;;7.30;3.50;;;;;;;;;;5027825;28;20191;-68
2023/03/29 15:37:50;;;;;;;6.00;3.33;;;;;;;;;;5001917;28;20192;-66
2023/03/29 15:40:18;;;;;;;7.70;3.07;;;;;;;;;;5003090;28;20269;-65
2023/03/29 15:42:49;;;;;;;4.93;1.80;;;;;;;;;;5029626;28;20258;-68
2023/03/29 15:45:32;;;;;;;6.97;3.00;;;;;;;;;;5003829;28;20195;-67